Time;durP1;ratioP1;P1;durP2;ratioP2;P2;SDS_P1;SDS_P2;PMS_P1;PMS_P2;Temp;Humidity;BMP_temperature;BMP_pressure;BME280_temperature;BME280_humidity;BME280_pressure;Samples;Min_cycle;Max_cycle;Signal;HPM_P1;HPM_P2
2021/05/29 00:00:10;;;;;;;1.67;1.48;;;18.10;57.50;;;;;;4902488;29;20037;-95
2021/05/29 00:02:38;;;;;;;2.08;1.77;;;18.10;57.50;;;;;;4915279;29;20008;-94
2021/05/29 00:05:11;;;;;;;3.05;1.77;;;18.10;57.50;;;;;;4914006;29;20033;-94
2021/05/29 00:07:37;;;;;;;2.40;1.67;;;18.00;57.50;;;;;;4912167;29;20020;-93
2021/05/29 00:10:06;;;;;;;2.17;1.80;;;18.00;57.60;;;;;;4933479;29;20084;-92
2021/05/29 00:12:43;;;;;;;2.40;1.90;;;18.00;57.60;;;;;;4915516;29;20044;-95
2021/05/29 00:15:25;;;;;;;2.00;1.70;;;18.00;57.70;;;;;;4919701;29;20009;-95
2021/05/29 00:17:51;;;;;;;2.67;1.83;;;17.90;57.70;;;;;;4915433;29;20060;-96
2021/05/29 00:20:21;;;;;;;2.40;1.92;;;17.90;57.70;;;;;;4928886;29;20029;-95
2021/05/29 00:25:33;;;;;;;2.40;1.88;;;17.90;57.90;;;;;;4897819;29;20057;-95
2021/05/29 00:28:01;;;;;;;3.25;2.10;;;17.80;57.90;;;;;;4883579;29;20013;-94
2021/05/29 00:30:27;;;;;;;2.30;1.88;;;17.80;57.90;;;;;;4878469;29;20030;-96
2021/05/29 00:32:55;;;;;;;3.20;2.20;;;17.80;58.00;;;;;;4888824;29;20037;-94
2021/05/29 00:35:33;;;;;;;2.17;1.85;;;17.70;57.90;;;;;;4862325;29;20017;-93
2021/05/29 00:37:59;;;;;;;2.03;1.80;;;17.70;58.10;;;;;;4890921;29;20494;-96
2021/05/29 00:40:28;;;;;;;2.33;2.05;;;17.70;58.00;;;;;;4873980;29;20036;-96
2021/05/29 00:42:59;;;;;;;2.30;1.80;;;17.70;58.10;;;;;;4876814;29;20093;-93
2021/05/29 00:45:27;;;;;;;2.53;2.05;;;17.60;58.10;;;;;;4891400;29;20310;-95
2021/05/29 00:47:55;;;;;;;2.88;2.10;;;17.60;58.20;;;;;;4890328;29;20037;-95
2021/05/29 00:50:21;;;;;;;3.03;2.40;;;17.60;58.20;;;;;;4874635;29;20093;-96
2021/05/29 00:52:47;;;;;;;3.72;2.17;;;17.50;58.20;;;;;;4878492;29;20060;-92
2021/05/29 00:55:16;;;;;;;3.20;2.05;;;17.50;58.30;;;;;;4891497;29;20029;-95
2021/05/29 00:57:47;;;;;;;2.20;1.95;;;17.50;58.30;;;;;;5037987;23;20120;-96
2021/05/29 01:00:21;;;;;;;3.47;2.13;;;17.50;58.40;;;;;;4896208;29;20066;-91
2021/05/29 01:02:49;;;;;;;3.22;2.15;;;17.50;58.40;;;;;;4893706;29;20036;-96
2021/05/29 01:05:18;;;;;;;3.33;2.53;;;17.40;58.40;;;;;;4897746;29;20056;-95
2021/05/29 01:07:53;;;;;;;2.65;2.08;;;17.40;58.50;;;;;;4916103;29;20041;-93
2021/05/29 01:10:21;;;;;;;3.45;2.33;;;17.40;58.50;;;;;;4895587;29;20144;-95
2021/05/29 01:12:53;;;;;;;3.20;2.00;;;17.30;58.50;;;;;;4881047;29;20057;-95
2021/05/29 01:15:25;;;;;;;3.70;2.42;;;17.30;59.20;;;;;;4903340;29;20202;-93
2021/05/29 01:17:54;;;;;;;3.38;2.40;;;17.30;58.70;;;;;;4924089;29;20044;-93
2021/05/29 01:20:27;;;;;;;3.63;2.25;;;17.30;58.60;;;;;;5226660;23;20024;-96
2021/05/29 01:23:25;;;;;;;2.85;2.10;;;17.20;58.60;;;;;;5559116;23;20353;31
2021/05/29 01:28:42;;;;;;;3.50;2.22;;;17.20;58.70;;;;;;5195961;23;19935;-87
2021/05/29 01:31:25;;;;;;;2.88;2.10;;;17.20;58.80;;;;;;5638141;23;20026;-86
2021/05/29 01:42:23;;;;;;;3.03;1.98;;;17.00;58.90;;;;;;5286095;23;20055;-96
2021/05/29 01:44:58;;;;;;;2.05;1.80;;;17.00;59.00;;;;;;5401334;23;20354;-96
2021/05/29 01:47:36;;;;;;;3.83;2.70;;;16.90;59.00;;;;;;5286461;23;20046;-93
2021/05/29 01:50:08;;;;;;;2.35;1.92;;;16.90;59.00;;;;;;4994728;28;20031;-96
2021/05/29 01:52:56;;;;;;;2.22;1.85;;;16.90;59.00;;;;;;4993571;28;20027;-96
2021/05/29 01:55:30;;;;;;;2.70;1.98;;;16.90;59.10;;;;;;5099841;23;20135;-93
2021/05/29 01:58:04;;;;;;;2.60;1.70;;;16.80;59.00;;;;;;4950710;29;20032;-94
2021/05/29 02:00:30;;;;;;;3.40;2.17;;;16.80;59.10;;;;;;4937599;29;20079;-91
2021/05/29 02:03:02;;;;;;;2.70;2.00;;;16.80;59.10;;;;;;4971345;29;20038;-88
2021/05/29 02:08:03;;;;;;;2.67;2.08;;;16.80;59.20;;;;;;5155020;23;20054;-94
2021/05/29 02:10:31;;;;;;;2.70;1.90;;;16.70;59.20;;;;;;4980818;28;20126;-94
2021/05/29 02:13:03;;;;;;;2.78;2.20;;;16.70;59.20;;;;;;4979421;28;20041;-95
2021/05/29 02:15:37;;;;;;;2.70;2.00;;;16.60;59.20;;;;;;5257708;23;20073;-91
2021/05/29 02:18:16;;;;;;;2.85;2.00;;;16.60;59.20;;;;;;5096723;23;20055;-88
2021/05/29 02:20:49;;;;;;;3.22;2.10;;;16.60;59.20;;;;;;5130663;23;20127;-91
2021/05/29 02:23:43;;;;;;;2.55;1.85;;;16.60;59.30;;;;;;5764668;23;20026;31
2021/05/29 02:26:18;;;;;;;2.40;1.90;;;16.60;59.30;;;;;;5121853;23;20091;-92
2021/05/29 02:28:59;;;;;;;2.55;1.92;;;16.50;59.30;;;;;;5700150;23;20066;-95
2021/05/29 02:31:26;;;;;;;2.60;1.90;;;16.50;59.30;;;;;;5742785;23;20281;-96
2021/05/29 02:36:47;;;;;;;2.63;1.75;;;16.40;59.30;;;;;;5463812;23;20783;-89
2021/05/29 02:39:23;;;;;;;2.63;1.88;;;16.40;59.30;;;;;;5239920;23;20127;-88
2021/05/29 02:42:12;;;;;;;2.38;1.80;;;16.40;59.40;;;;;;5721874;23;20143;31
2021/05/29 02:44:52;;;;;;;2.17;1.85;;;16.30;59.40;;;;;;5632718;23;19921;31
2021/05/29 02:47:20;;;;;;;2.33;1.80;;;16.30;59.50;;;;;;5267687;23;20052;-92
2021/05/29 02:49:55;;;;;;;1.70;1.50;;;16.30;59.50;;;;;;5496984;23;20015;-91
2021/05/29 02:52:57;;;;;;;2.55;1.90;;;16.30;59.50;;;;;;5700925;23;20622;31
2021/05/29 02:55:33;;;;;;;1.90;1.70;;;16.20;59.60;;;;;;4897685;29;19924;-92
2021/05/29 02:58:04;;;;;;;1.90;1.60;;;16.20;59.50;;;;;;5280741;23;20064;-90
2021/05/29 03:03:24;;;;;;;2.03;1.77;;;16.10;59.60;;;;;;5393638;23;20049;-96
2021/05/29 03:05:55;;;;;;;2.42;1.90;;;16.10;59.60;;;;;;5024186;28;20026;-96
2021/05/29 03:08:22;;;;;;;2.72;1.95;;;16.10;59.70;;;;;;4959378;29;20034;-96
2021/05/29 03:10:51;;;;;;;2.45;1.60;;;16.00;59.60;;;;;;5003008;28;20038;-92
2021/05/29 03:13:20;;;;;;;3.60;2.22;;;16.00;59.60;;;;;;5012605;28;20015;-94
2021/05/29 03:15:48;;;;;;;2.65;1.83;;;16.00;59.70;;;;;;5040442;23;20062;-88
2021/05/29 03:18:17;;;;;;;2.42;2.03;;;16.00;59.70;;;;;;5790201;23;20684;-89
2021/05/29 03:20:42;;;;;;;2.17;1.90;;;15.90;59.60;;;;;;4934591;28;20043;-92
2021/05/29 03:23:08;;;;;;;2.75;2.03;;;15.90;59.70;;;;;;4953737;28;20042;-90
2021/05/29 03:25:34;;;;;;;2.88;1.95;;;15.90;59.70;;;;;;4944733;28;20030;-91
2021/05/29 03:28:00;;;;;;;2.38;1.88;;;15.90;59.70;;;;;;4975143;28;20163;-91
2021/05/29 03:30:28;;;;;;;2.00;1.65;;;15.90;59.80;;;;;;4971642;28;20094;-91
2021/05/29 03:32:56;;;;;;;3.15;2.10;;;15.80;59.80;;;;;;4959710;28;20030;-89
2021/05/29 03:35:22;;;;;;;2.90;1.92;;;15.80;59.90;;;;;;4976883;28;20177;-92
2021/05/29 03:37:48;;;;;;;3.05;1.98;;;15.80;59.90;;;;;;4991239;28;20039;-91
2021/05/29 03:40:15;;;;;;;3.28;1.98;;;15.70;59.90;;;;;;4975274;28;20026;-92
2021/05/29 03:42:41;;;;;;;3.38;2.10;;;15.70;59.90;;;;;;4987941;28;20037;-91
2021/05/29 03:45:09;;;;;;;3.20;2.10;;;15.70;59.90;;;;;;4990026;28;20023;-90
2021/05/29 03:47:35;;;;;;;2.50;1.98;;;15.60;59.90;;;;;;4983385;28;20177;-91
2021/05/29 03:50:01;;;;;;;3.00;2.10;;;15.60;59.90;;;;;;4973029;28;20121;-91
2021/05/29 03:52:27;;;;;;;2.22;1.88;;;15.50;60.00;;;;;;4964908;28;20043;-90
2021/05/29 03:54:53;;;;;;;3.10;2.17;;;15.60;60.00;;;;;;4974450;28;20038;-93
2021/05/29 03:57:19;;;;;;;2.88;2.08;;;15.50;60.00;;;;;;4975710;28;20042;-93
2021/05/29 03:59:45;;;;;;;2.92;2.10;;;15.50;60.00;;;;;;4965822;28;20058;-91
2021/05/29 04:02:10;;;;;;;3.50;2.00;;;15.50;60.10;;;;;;4953389;28;20038;-91
2021/05/29 04:04:36;;;;;;;2.63;2.10;;;15.50;60.10;;;;;;4948045;28;20034;-90
2021/05/29 04:07:04;;;;;;;3.15;2.22;;;15.40;60.10;;;;;;4957585;28;20035;-91
2021/05/29 04:09:30;;;;;;;3.17;2.13;;;15.40;60.10;;;;;;4962276;28;20031;-91
2021/05/29 04:11:57;;;;;;;2.85;2.17;;;15.40;60.20;;;;;;4957901;28;20073;-91
2021/05/29 04:14:23;;;;;;;2.42;1.90;;;15.40;60.20;;;;;;4960588;28;20391;-90
2021/05/29 04:16:49;;;;;;;3.70;2.35;;;15.30;60.20;;;;;;4971154;28;20113;-90
2021/05/29 04:19:15;;;;;;;3.35;2.45;;;15.30;60.20;;;;;;4978505;28;20050;-91
2021/05/29 04:21:41;;;;;;;2.97;2.15;;;15.30;60.30;;;;;;4980477;28;20070;-93
2021/05/29 04:24:08;;;;;;;2.80;2.15;;;15.30;60.30;;;;;;4971833;28;20063;-90
2021/05/29 04:26:33;;;;;;;3.28;2.10;;;15.30;60.40;;;;;;4974568;28;20113;-91
2021/05/29 04:28:59;;;;;;;2.60;2.20;;;15.30;60.40;;;;;;4956279;28;20039;-91
2021/05/29 04:31:25;;;;;;;3.05;2.08;;;15.20;60.40;;;;;;4972949;28;20070;-91
2021/05/29 04:33:51;;;;;;;3.30;2.20;;;15.20;60.40;;;;;;4966295;28;20035;-91
2021/05/29 04:36:17;;;;;;;2.90;2.15;;;15.20;60.40;;;;;;4953470;28;20074;-91
2021/05/29 04:38:43;;;;;;;3.33;2.42;;;15.20;60.50;;;;;;4982245;28;20058;-92
2021/05/29 04:41:08;;;;;;;2.95;2.15;;;15.20;60.50;;;;;;4942388;28;20022;-91
2021/05/29 04:43:34;;;;;;;4.35;2.28;;;15.10;60.50;;;;;;4975189;28;20109;-91
2021/05/29 04:46:00;;;;;;;5.00;2.60;;;15.10;60.50;;;;;;4941072;28;20078;-92
2021/05/29 04:48:26;;;;;;;3.53;2.45;;;15.10;60.50;;;;;;4956055;28;20038;-90
2021/05/29 04:53:36;;;;;;;3.37;2.50;;;15.10;60.60;;;;;;4974949;28;20185;-91
2021/05/29 04:56:02;;;;;;;3.80;2.60;;;15.10;60.60;;;;;;4958569;28;20061;-92
2021/05/29 04:58:28;;;;;;;4.40;2.60;;;15.10;60.70;;;;;;4975958;28;20038;-92
2021/05/29 05:00:54;;;;;;;4.20;2.80;;;15.00;60.70;;;;;;4977426;28;20089;-91
2021/05/29 05:03:20;;;;;;;4.25;2.70;;;15.00;60.70;;;;;;4990515;28;20476;-92
2021/05/29 05:05:47;;;;;;;3.55;2.70;;;15.00;60.70;;;;;;4964284;28;20062;-91
2021/05/29 05:08:13;;;;;;;3.70;2.67;;;15.10;60.90;;;;;;4952933;28;20058;-92
2021/05/29 05:10:38;;;;;;;4.57;2.75;;;15.00;60.80;;;;;;4961374;28;20026;-91
2021/05/29 05:13:04;;;;;;;3.65;2.75;;;15.00;60.80;;;;;;4942418;28;20042;-93
2021/05/29 05:15:31;;;;;;;3.80;2.70;;;15.00;60.90;;;;;;4973621;28;20019;-91
2021/05/29 05:17:57;;;;;;;4.82;2.78;;;15.00;60.90;;;;;;4986996;28;20023;-92
2021/05/29 05:20:23;;;;;;;3.90;3.00;;;15.00;60.90;;;;;;4964495;28;20055;-93
2021/05/29 05:22:49;;;;;;;4.72;2.88;;;15.00;61.00;;;;;;4937665;28;20479;-91
2021/05/29 05:25:16;;;;;;;3.88;2.92;;;15.00;61.00;;;;;;4952822;28;20038;-92
2021/05/29 05:27:42;;;;;;;3.70;2.58;;;15.00;61.00;;;;;;4967186;28;20118;-91
2021/05/29 05:30:10;;;;;;;4.28;2.80;;;15.00;61.70;;;;;;4953896;28;20058;-92
2021/05/29 05:32:37;;;;;;;4.10;2.80;;;14.90;61.00;;;;;;4985348;28;20087;-93
2021/05/29 05:35:08;;;;;;;4.63;3.17;;;15.00;61.00;;;;;;4968208;28;20043;-91
2021/05/29 05:37:35;;;;;;;4.72;3.10;;;15.00;61.10;;;;;;4962272;28;20027;-92
2021/05/29 05:40:01;;;;;;;4.60;3.00;;;14.90;61.00;;;;;;4939525;28;20142;-91
2021/05/29 05:42:29;;;;;;;3.85;2.60;;;15.00;61.10;;;;;;4934051;28;20043;-91
2021/05/29 05:44:55;;;;;;;3.90;2.72;;;15.00;61.20;;;;;;4925648;28;20043;-92
2021/05/29 05:47:21;;;;;;;3.90;2.78;;;15.00;61.20;;;;;;4957905;28;20077;-92
2021/05/29 05:49:47;;;;;;;4.93;3.00;;;15.00;61.20;;;;;;4927969;28;20043;-94
2021/05/29 05:52:13;;;;;;;5.30;3.10;;;14.90;61.20;;;;;;4953196;28;20105;-91
2021/05/29 05:54:38;;;;;;;4.57;2.97;;;14.90;61.20;;;;;;4946714;28;20077;-94
2021/05/29 05:57:05;;;;;;;4.18;3.15;;;14.90;61.20;;;;;;4957260;28;20078;-94
2021/05/29 05:59:30;;;;;;;4.88;3.47;;;15.00;61.30;;;;;;4956597;28;20023;-92
2021/05/29 06:01:56;;;;;;;4.38;2.90;;;15.00;61.30;;;;;;4925961;28;20035;-90
2021/05/29 06:04:22;;;;;;;5.57;3.80;;;15.00;61.30;;;;;;4941810;28;20030;-90
2021/05/29 06:06:48;;;;;;;4.45;3.03;;;15.00;61.30;;;;;;4957484;28;20035;-90
2021/05/29 06:09:14;;;;;;;4.18;3.28;;;15.00;61.30;;;;;;4956268;28;20027;-90
2021/05/29 06:11:40;;;;;;;5.00;3.45;;;15.00;61.30;;;;;;4941881;28;20035;-91
2021/05/29 06:19:20;;;;;;;4.38;3.17;;;15.00;61.40;;;;;;4947834;28;20071;-90
2021/05/29 06:21:50;;;;;;;4.63;3.45;;;15.00;61.40;;;;;;4967255;28;20066;-90
2021/05/29 06:24:28;;;;;;;4.38;3.05;;;15.00;61.40;;;;;;4933718;28;20030;-89
2021/05/29 06:26:55;;;;;;;5.43;3.47;;;15.00;61.50;;;;;;4954150;29;20111;-89
2021/05/29 06:29:21;;;;;;;4.43;3.05;;;15.00;61.40;;;;;;4961203;28;20020;-90
2021/05/29 06:31:48;;;;;;;6.50;3.50;;;15.00;61.50;;;;;;4952552;28;20043;-89
2021/05/29 06:34:15;;;;;;;3.80;2.90;;;15.00;61.50;;;;;;4966833;28;20026;-90
2021/05/29 06:36:41;;;;;;;4.53;3.33;;;15.00;61.50;;;;;;4971025;28;20031;-90
2021/05/29 06:39:07;;;;;;;5.43;3.38;;;15.10;61.60;;;;;;4944722;28;20435;-88
2021/05/29 06:41:35;;;;;;;4.10;3.00;;;15.10;61.60;;;;;;4959075;28;20479;-89
2021/05/29 06:44:02;;;;;;;5.07;3.67;;;15.10;61.60;;;;;;4986162;28;20045;-89
2021/05/29 06:46:28;;;;;;;6.05;3.55;;;15.10;61.60;;;;;;4971794;28;20035;-89
2021/05/29 06:48:55;;;;;;;5.32;3.50;;;15.10;61.70;;;;;;4954552;28;20161;-90
2021/05/29 06:51:33;;;;;;;4.85;3.58;;;15.10;61.70;;;;;;4952683;28;20035;-89
2021/05/29 06:54:04;;;;;;;4.88;3.63;;;15.10;61.70;;;;;;4941095;28;20038;-87
2021/05/29 06:59:14;;;;;;;4.50;3.10;;;15.20;61.70;;;;;;4973674;28;20031;-90
2021/05/29 07:01:39;;;;;;;5.72;3.60;;;15.10;61.60;;;;;;4938124;29;20042;-89
2021/05/29 07:04:05;;;;;;;5.43;3.88;;;15.20;61.70;;;;;;4935685;28;20046;-93
2021/05/29 07:06:31;;;;;;;5.30;3.70;;;15.20;61.70;;;;;;4939779;28;20023;-85
2021/05/29 07:08:57;;;;;;;5.82;3.85;;;15.20;61.70;;;;;;4929545;28;20042;-90
2021/05/29 07:11:23;;;;;;;5.07;3.78;;;15.20;61.70;;;;;;4978062;28;20031;-90
2021/05/29 07:13:49;;;;;;;5.72;4.18;;;15.20;61.70;;;;;;4944097;28;20077;-89
2021/05/29 07:16:16;;;;;;;5.20;3.72;;;15.30;61.70;;;;;;4952242;28;20020;-90
2021/05/29 07:18:45;;;;;;;5.18;4.07;;;15.30;61.80;;;;;;4953032;28;20034;-90
2021/05/29 07:21:13;;;;;;;5.97;4.43;;;15.30;61.70;;;;;;4938651;28;20028;-93
2021/05/29 07:23:39;;;;;;;5.00;3.88;;;15.30;62.40;;;;;;4972298;28;20113;-91
2021/05/29 07:26:05;;;;;;;5.07;3.85;;;15.30;61.70;;;;;;4953335;28;20098;-88
2021/05/29 07:28:31;;;;;;;6.47;4.00;;;15.40;61.80;;;;;;4956487;28;20050;-91
2021/05/29 07:30:57;;;;;;;5.68;3.83;;;15.40;61.80;;;;;;4951243;28;20033;-90
2021/05/29 07:33:24;;;;;;;6.60;4.40;;;15.40;61.70;;;;;;4937967;28;20118;-88
2021/05/29 07:35:51;;;;;;;5.95;4.28;;;15.50;61.70;;;;;;4936475;28;20031;-84
2021/05/29 07:38:17;;;;;;;5.75;4.30;;;15.50;61.70;;;;;;4951332;28;20043;-92
2021/05/29 07:40:43;;;;;;;5.78;4.47;;;15.60;61.70;;;;;;4966149;28;20031;-91
2021/05/29 07:43:09;;;;;;;5.90;4.22;;;15.60;61.70;;;;;;4956022;28;20027;-87
2021/05/29 07:45:35;;;;;;;6.32;4.03;;;15.60;61.70;;;;;;4937103;28;20122;-84
2021/05/29 07:48:01;;;;;;;6.00;4.45;;;15.70;61.60;;;;;;4957466;28;20166;-92
2021/05/29 07:50:27;;;;;;;6.50;4.18;;;15.70;61.50;;;;;;4974829;28;20484;-87
2021/05/29 07:52:53;;;;;;;6.22;4.63;;;15.80;61.50;;;;;;4942766;28;20062;-88
2021/05/29 07:55:20;;;;;;;5.93;4.20;;;15.90;61.50;;;;;;4960015;28;20495;-90
2021/05/29 07:57:46;;;;;;;6.00;4.65;;;15.90;61.50;;;;;;4953070;28;20058;-89
2021/05/29 08:00:16;;;;;;;5.45;4.00;;;16.00;61.40;;;;;;4968288;28;20029;-89
2021/05/29 08:02:42;;;;;;;5.97;4.60;;;16.10;61.40;;;;;;4949414;28;20371;-93
2021/05/29 08:05:16;;;;;;;6.50;4.90;;;16.10;61.30;;;;;;4945797;28;20054;-91
2021/05/29 08:07:42;;;;;;;;;;;16.20;61.30;;;;;;4947648;28;20379;-86
2021/05/29 08:10:09;;;;;;;5.68;4.28;;;16.20;61.00;;;;;;4946680;28;19918;-89
2021/05/29 08:12:34;;;;;;;6.15;4.32;;;16.30;60.90;;;;;;4930739;28;21129;-92
2021/05/29 08:15:00;;;;;;;5.65;4.20;;;16.30;61.00;;;;;;4928164;28;20467;-90
2021/05/29 08:17:26;;;;;;;5.60;4.15;;;16.40;61.00;;;;;;4932342;28;20105;-90
2021/05/29 08:19:52;;;;;;;5.80;4.22;;;16.50;60.90;;;;;;4937501;28;20059;-94
2021/05/29 08:22:20;;;;;;;5.97;4.38;;;16.60;60.90;;;;;;4940205;28;20066;-94
2021/05/29 08:24:46;;;;;;;5.97;4.20;;;16.60;60.80;;;;;;4967605;28;20097;-94
2021/05/29 08:27:11;;;;;;;5.50;4.38;;;16.70;60.70;;;;;;4934855;28;20078;-91
2021/05/29 08:29:37;;;;;;;5.72;4.35;;;16.80;60.60;;;;;;4940315;29;20030;-88
2021/05/29 08:32:03;;;;;;;5.53;4.32;;;16.90;60.60;;;;;;4957853;28;20027;-86
2021/05/29 08:34:29;;;;;;;6.57;4.68;;;17.00;60.60;;;;;;4951917;28;20058;-87
2021/05/29 08:36:55;;;;;;;5.55;4.25;;;17.10;60.40;;;;;;4975568;28;20058;-88
2021/05/29 08:39:21;;;;;;;5.68;3.97;;;17.20;60.40;;;;;;4955121;28;20031;-90
2021/05/29 08:41:47;;;;;;;5.45;3.85;;;17.20;60.20;;;;;;4940653;28;20127;-90
2021/05/29 08:44:12;;;;;;;5.93;4.20;;;17.30;60.20;;;;;;4921863;28;20023;-91
2021/05/29 08:46:38;;;;;;;5.40;4.10;;;17.40;60.10;;;;;;4939063;28;20089;-89
2021/05/29 08:49:05;;;;;;;5.57;4.03;;;17.50;60.10;;;;;;4962832;28;20023;-89
2021/05/29 08:51:31;;;;;;;6.13;4.15;;;17.60;60.00;;;;;;4931810;28;20126;-92
2021/05/29 08:53:57;;;;;;;5.90;4.60;;;17.60;59.90;;;;;;4952155;28;20027;-88
2021/05/29 08:56:25;;;;;;;5.35;4.07;;;17.70;59.90;;;;;;4952013;28;20121;-89
2021/05/29 08:58:52;;;;;;;5.82;4.13;;;17.70;59.90;;;;;;4951519;28;20038;-87
2021/05/29 09:01:19;;;;;;;5.95;4.35;;;17.80;59.90;;;;;;4946684;28;20113;-86
2021/05/29 09:03:53;;;;;;;4.88;3.80;;;17.90;59.90;;;;;;4960270;28;20056;-84
2021/05/29 09:06:41;;;;;;;5.07;3.97;;;17.90;59.90;;;;;;4967104;28;20031;-84
2021/05/29 09:09:12;;;;;;;6.05;4.20;;;18.00;60.00;;;;;;4964727;28;20085;-82
2021/05/29 09:12:07;;;;;;;5.15;3.53;;;18.10;59.90;;;;;;4966343;28;20735;-89
2021/05/29 09:14:36;;;;;;;5.15;3.95;;;18.20;59.90;;;;;;4948327;28;20049;-89
2021/05/29 09:17:17;;;;;;;5.30;3.65;;;18.20;59.80;;;;;;4958416;28;20023;-90
2021/05/29 09:20:01;;;;;;;5.30;3.72;;;18.30;59.80;;;;;;4974050;28;20051;-88
2021/05/29 09:22:30;;;;;;;5.07;3.57;;;18.30;59.80;;;;;;4979249;28;20043;-91
2021/05/29 09:25:05;;;;;;;5.07;3.72;;;18.40;59.70;;;;;;4975507;28;20023;-90
2021/05/29 09:27:36;;;;;;;4.93;3.72;;;18.40;59.70;;;;;;4962013;28;20460;-93
2021/05/29 09:30:07;;;;;;;4.38;3.22;;;18.50;59.60;;;;;;4957533;28;20118;-92
2021/05/29 09:32:35;;;;;;;5.30;4.03;;;18.50;59.60;;;;;;4987417;28;20164;-90
2021/05/29 09:35:09;;;;;;;5.07;3.72;;;18.60;59.60;;;;;;4957625;28;20042;-90
2021/05/29 09:37:38;;;;;;;5.28;4.00;;;18.70;59.60;;;;;;4973970;28;20042;-94
2021/05/29 09:40:10;;;;;;;5.25;3.80;;;18.70;59.50;;;;;;5005340;28;20014;-92
2021/05/29 09:42:39;;;;;;;5.35;3.85;;;18.80;59.50;;;;;;4983590;28;20042;-95
2021/05/29 09:45:19;;;;;;;5.20;3.70;;;18.80;59.50;;;;;;4970151;28;20034;-93
2021/05/29 09:48:12;;;;;;;5.13;3.95;;;18.90;59.50;;;;;;4975248;28;20049;-94
2021/05/29 09:51:10;;;;;;;5.25;3.97;;;19.00;59.60;;;;;;4993207;28;20038;-94
2021/05/29 09:53:37;;;;;;;4.70;3.55;;;19.00;59.50;;;;;;4983813;28;20038;-95
2021/05/29 09:56:04;;;;;;;4.50;3.60;;;19.00;59.30;;;;;;4990242;28;20026;-93
2021/05/29 09:58:49;;;;;;;4.88;3.47;;;19.10;59.30;;;;;;4997025;28;20475;-93
2021/05/29 10:01:48;;;;;;;5.35;4.10;;;19.10;59.50;;;;;;5000262;28;20547;-94
2021/05/29 10:04:21;;;;;;;4.78;3.30;;;19.20;59.40;;;;;;4985845;28;20031;-95
2021/05/29 10:06:58;;;;;;;4.57;3.40;;;19.20;59.20;;;;;;4988008;28;20035;-95
2021/05/29 10:09:25;;;;;;;4.75;3.70;;;19.20;59.30;;;;;;4969523;28;20069;-96
2021/05/29 10:11:51;;;;;;;5.03;3.55;;;19.30;59.20;;;;;;4966876;28;20488;-92
2021/05/29 10:14:18;;;;;;;6.03;4.32;;;19.30;59.20;;;;;;4961843;28;20395;-96
2021/05/29 10:16:44;;;;;;;4.65;3.60;;;19.40;59.20;;;;;;4982812;28;20059;-95
2021/05/29 10:19:10;;;;;;;5.03;3.80;;;19.40;59.20;;;;;;4946658;28;20035;-96
2021/05/29 10:21:37;;;;;;;5.32;3.85;;;19.50;59.20;;;;;;4960883;28;20083;-92
2021/05/29 10:24:07;;;;;;;5.43;3.80;;;19.50;59.10;;;;;;4940449;29;20027;-93
2021/05/29 10:26:34;;;;;;;5.07;3.60;;;19.60;59.20;;;;;;4941431;29;20086;-95
2021/05/29 10:29:01;;;;;;;5.03;3.97;;;19.60;59.10;;;;;;4958207;29;20115;-94
2021/05/29 10:31:35;;;;;;;4.90;3.67;;;19.70;59.10;;;;;;4955084;29;20031;-96
2021/05/29 10:34:03;;;;;;;4.93;3.40;;;19.70;59.00;;;;;;4926792;29;20170;-95
2021/05/29 10:36:43;;;;;;;5.13;3.45;;;19.80;59.00;;;;;;4938417;29;20039;-89
2021/05/29 10:39:29;;;;;;;5.05;3.45;;;19.80;58.90;;;;;;4942568;29;20027;-91
2021/05/29 10:42:02;;;;;;;4.28;3.20;;;19.90;58.90;;;;;;4919691;29;20051;-93
2021/05/29 10:44:36;;;;;;;4.40;3.45;;;19.90;58.80;;;;;;4925061;29;20070;-93
2021/05/29 10:47:10;;;;;;;4.20;2.95;;;20.00;58.70;;;;;;4960395;29;20476;-94
2021/05/29 10:49:49;;;;;;;3.53;2.80;;;20.10;58.70;;;;;;4932681;29;20490;-95
2021/05/29 10:52:30;;;;;;;3.67;3.13;;;20.20;58.60;;;;;;4924782;29;20067;-93
2021/05/29 10:55:14;;;;;;;4.60;3.20;;;20.20;58.50;;;;;;4905611;29;20086;-89
2021/05/29 10:57:55;;;;;;;4.00;2.88;;;20.30;58.40;;;;;;4944106;29;20066;-92
2021/05/29 11:00:39;;;;;;;3.42;2.58;;;20.40;58.30;;;;;;4941933;29;20106;-94
2021/05/29 11:03:18;;;;;;;4.00;3.20;;;20.40;58.30;;;;;;4940871;29;20038;-93
2021/05/29 11:05:44;;;;;;;3.55;2.58;;;20.50;58.30;;;;;;4957242;29;20031;-94
2021/05/29 11:08:45;;;;;;;3.65;2.65;;;20.60;58.30;;;;;;4910857;29;20065;-93
2021/05/29 11:11:37;;;;;;;3.78;2.67;;;20.70;58.30;;;;;;4958271;29;20050;-95
2021/05/29 11:14:12;;;;;;;3.47;2.70;;;20.70;58.10;;;;;;4940389;29;20031;-95
2021/05/29 11:16:51;;;;;;;3.72;2.70;;;20.80;58.00;;;;;;4942333;29;20035;-94
2021/05/29 11:19:22;;;;;;;3.22;2.45;;;20.90;58.00;;;;;;4941261;29;20039;-94
2021/05/29 11:22:17;;;;;;;3.53;2.70;;;20.90;57.90;;;;;;4976198;28;20137;-96
2021/05/29 11:24:49;;;;;;;3.58;2.42;;;21.00;57.90;;;;;;4942846;28;20066;-93
2021/05/29 11:27:33;;;;;;;3.58;2.38;;;21.10;57.90;;;;;;4952447;28;20023;-92
2021/05/29 11:30:01;;;;;;;3.35;2.38;;;21.20;57.90;;;;;;4964123;28;20029;-93
2021/05/29 11:32:48;;;;;;;3.60;2.60;;;21.20;57.70;;;;;;4942293;28;20070;-93
2021/05/29 11:35:53;;;;;;;3.22;2.40;;;21.30;57.80;;;;;;4956051;28;20058;-92
2021/05/29 11:38:23;;;;;;;3.28;2.45;;;21.30;57.80;;;;;;4963464;28;20070;-94
2021/05/29 11:40:55;;;;;;;2.75;2.20;;;21.40;57.80;;;;;;4980686;28;20035;-94
2021/05/29 11:43:38;;;;;;;3.22;2.42;;;21.40;57.70;;;;;;4983113;28;20061;-93
2021/05/29 11:46:13;;;;;;;3.38;2.42;;;21.50;57.90;;;;;;4982334;28;20035;-94
2021/05/29 11:48:42;;;;;;;3.50;2.20;;;21.60;57.90;;;;;;4944903;28;20026;-93
2021/05/29 11:51:10;;;;;;;2.97;2.30;;;21.60;58.00;;;;;;4980130;28;20395;-93
2021/05/29 11:53:39;;;;;;;3.65;2.60;;;21.60;58.60;;;;;;4950323;28;20026;-95
2021/05/29 11:56:06;;;;;;;2.75;2.30;;;21.70;58.00;;;;;;4957998;29;20020;-94
2021/05/29 11:58:44;;;;;;;3.15;2.38;;;21.70;58.10;;;;;;4958703;28;20081;-93
2021/05/29 12:01:11;;;;;;;3.17;2.20;;;21.80;58.10;;;;;;4965720;28;20031;-90
2021/05/29 12:03:39;;;;;;;4.18;2.50;;;21.80;58.10;;;;;;4961187;28;20027;-93
2021/05/29 12:06:06;;;;;;;3.38;2.10;;;21.80;58.20;;;;;;4978805;28;20121;-87
2021/05/29 12:08:50;;;;;;;3.17;2.33;;;21.90;58.30;;;;;;4969167;28;20019;-89
2021/05/29 12:11:16;;;;;;;2.75;2.17;;;21.90;58.30;;;;;;4930643;28;20062;-90
2021/05/29 12:13:42;;;;;;;2.78;2.13;;;22.00;58.20;;;;;;4960509;28;20034;-94
2021/05/29 12:16:08;;;;;;;3.38;2.40;;;22.00;58.30;;;;;;4970200;28;20133;-89
2021/05/29 12:18:40;;;;;;;3.00;2.13;;;22.00;58.30;;;;;;4924204;29;20023;-93
2021/05/29 12:21:07;;;;;;;2.58;2.00;;;22.00;58.20;;;;;;4933475;29;20574;-90
2021/05/29 12:23:53;;;;;;;2.72;2.40;;;22.00;58.10;;;;;;4947045;28;20042;-91
2021/05/29 12:26:21;;;;;;;2.90;2.28;;;22.10;58.30;;;;;;4962840;28;20043;-93
2021/05/29 12:28:47;;;;;;;2.85;2.25;;;22.10;58.10;;;;;;4944237;28;20058;-93
2021/05/29 12:31:14;;;;;;;3.40;2.20;;;22.10;58.10;;;;;;4960216;28;20121;-92
2021/05/29 12:33:40;;;;;;;3.75;2.35;;;22.20;58.10;;;;;;4942003;28;20034;-92
2021/05/29 12:36:07;;;;;;;3.00;2.40;;;22.20;58.00;;;;;;4956818;28;20031;-92
2021/05/29 12:38:33;;;;;;;3.33;2.60;;;22.20;58.00;;;;;;4924617;29;20034;-91
2021/05/29 12:41:15;;;;;;;2.72;2.13;;;22.20;58.00;;;;;;4974241;28;20533;-92
2021/05/29 12:43:42;;;;;;;2.83;2.17;;;22.20;58.00;;;;;;4978592;28;20069;-91
2021/05/29 12:46:24;;;;;;;2.35;2.05;;;22.20;58.00;;;;;;4976387;28;20031;-92
2021/05/29 12:49:14;;;;;;;2.75;2.10;;;22.20;58.00;;;;;;4947897;28;20027;-91
2021/05/29 12:51:46;;;;;;;2.80;2.20;;;22.30;58.00;;;;;;4988148;28;20034;-91
2021/05/29 12:54:13;;;;;;;3.20;2.03;;;22.30;58.00;;;;;;4956102;28;20027;-89
2021/05/29 12:56:56;;;;;;;3.10;2.22;;;22.30;58.00;;;;;;4967892;28;20027;-93
2021/05/29 12:59:27;;;;;;;2.78;2.00;;;22.30;58.20;;;;;;4945806;28;20105;-93
2021/05/29 13:02:32;;;;;;;2.63;2.00;;;22.40;58.10;;;;;;4968076;28;20030;-90
2021/05/29 13:07:49;;;;;;;2.20;2.00;;;22.40;58.10;;;;;;4969057;28;20041;-89
2021/05/29 13:12:41;;;;;;;3.55;2.08;;;22.40;58.20;;;;;;4974155;28;20043;-84
2021/05/29 13:15:18;;;;;;;2.80;2.00;;;22.40;58.10;;;;;;4928598;28;20476;-86
2021/05/29 13:17:44;;;;;;;2.85;1.60;;;22.40;58.10;;;;;;4930674;28;20031;-85
2021/05/29 13:20:20;;;;;;;2.65;2.05;;;22.40;58.10;;;;;;4933382;28;20048;-87
2021/05/29 13:22:46;;;;;;;2.72;1.92;;;22.40;58.10;;;;;;4942029;28;20043;-80
2021/05/29 13:25:19;;;;;;;2.40;1.80;;;22.40;58.00;;;;;;4962172;28;20031;-86
2021/05/29 13:27:52;;;;;;;3.30;2.20;;;22.50;58.00;;;;;;4962662;28;20029;-85
2021/05/29 13:30:24;;;;;;;2.72;1.90;;;22.50;57.50;;;;;;4953434;28;20035;-82
2021/05/29 13:33:08;;;;;;;3.00;2.20;;;22.50;56.70;;;;;;4952384;28;20130;-82
2021/05/29 13:35:35;;;;;;;3.08;2.45;;;22.40;56.10;;;;;;4973104;28;20058;-95
2021/05/29 13:38:01;;;;;;;2.95;2.45;;;22.40;55.60;;;;;;4939480;28;20125;-87
2021/05/29 13:40:29;;;;;;;3.13;2.30;;;22.40;55.20;;;;;;4955844;28;20031;-83
2021/05/29 13:43:00;;;;;;;4.05;2.38;;;22.40;54.90;;;;;;4971033;28;20436;-87